Latest Weather Observations for Laverton

IDW60801

Issued at 4:22 pm WST Saturday 3 December 2022 (issued every 10 minutes, with the page automatically refreshed every 10 minutes)

About weather observations | Map of weather stations | Latest weather observations for WA | Other Formats
Station Details ID: 012305 Name: LAVERTON AERO Lat: -28.61 Lon: 122.42 Height: 464.3 m
Data from the previous 72 hours. | See also: Recent months at Laverton
Date/Time
WST
Temp
°C
App
Temp
°C
Dew
Point
°C
Rel
Hum
%
Delta-T
°C
Wind Press
QNH
hPa
Press
MSL
hPa
Rain since
9am
mm
Dir  Spd
km/h
Gust
km/h
Spd
kts
Gust
kts
03/04:00pm 39.7 35.4 0.9 9 20.4 SSW 13 20 7 11 1006.7 1003.6 0.0
03/03:30pm 40.1 37.0 1.2 9 20.6 E 7 13 4 7 1006.9 1003.9 0.0
03/03:00pm 39.7 35.4 0.9 9 20.4 SSE 13 20 7 11 1007.0 1004.0 0.0
03/02:30pm 40.1 36.6 1.2 9 20.6 WSW 9 15 5 8 1007.2 1004.2 0.0
03/02:00pm 39.8 35.1 1.0 9 20.5 NNW 15 24 8 13 1007.6 1004.5 0.0
03/01:30pm 40.0 36.9 1.1 9 20.5 ENE 7 20 4 11 1007.9 1004.8 0.0
03/01:00pm 39.1 35.5 0.5 9 20.1 WSW 9 19 5 10 1008.3 1005.2 0.0
03/12:30pm 39.3 35.3 0.6 9 20.2 SW 11 22 6 12 1008.5 1005.4 0.0
03/12:00pm 39.4 35.8 0.7 9 20.3 ESE 9 17 5 9 1008.7 1005.6 0.0
03/11:30am 39.4 35.1 0.7 9 20.2 WSW 13 22 7 12 1008.9 1005.9 0.0
03/11:00am 38.8 33.5 1.7 10 19.7 SSW 19 26 10 14 1009.0 1006.0 0.0
03/10:30am 37.8 33.9 1.0 10 19.2 SSE 11 20 6 11 1009.3 1006.3 0.0
03/10:00am 37.5 33.2 0.7 10 19.1 SE 13 28 7 15 1009.7 1006.6 0.0
03/09:30am 37.0 32.6 0.4 10 18.8 ESE 13 22 7 12 1009.8 1006.7 0.0
03/09:00am 36.1 31.8 1.0 11 18.1 ESE 13 19 7 10 1010.0 1006.9 0.0
03/08:30am 34.7 31.0 2.3 13 16.9 SE 11 19 6 10 1010.2 1007.1 0.0
03/08:00am 33.3 28.6 3.2 15 15.8 ESE 17 20 9 11 1010.1 1007.0 0.0
03/07:30am 31.5 27.0 4.3 18 14.4 ESE 17 19 9 10 1010.0 1006.9 0.0
03/07:00am 30.3 25.5 4.9 20 13.5 ESE 19 24 10 13 1009.8 1006.7 0.0
03/06:30am 28.8 24.0 5.6 23 12.4 ESE 20 26 11 14 1009.3 1006.3 0.0
03/06:00am 27.3 22.5 5.6 25 11.5 ESE 20 24 11 13 1009.2 1006.2 0.0
03/05:30am 26.8 22.6 5.7 26 11.1 SE 17 20 9 11 1009.0 1006.0 0.0
03/05:00am 25.9 22.2 4.4 25 11.1 ESE 13 17 7 9 1008.5 1005.4 0.0
03/04:30am 25.8 22.1 4.3 25 11.0 ESE 13 15 7 8 1008.2 1005.1 0.0
03/04:00am 25.8 21.8 3.1 23 11.4 E 13 15 7 8 1008.1 1005.0 0.0
03/03:30am 26.9 22.9 2.7 21 12.1 ESE 13 17 7 9 1008.1 1005.0 0.0
03/03:00am 27.3 23.1 1.7 19 12.7 ESE 13 17 7 9 1008.0 1004.9 0.0
03/02:30am 26.1 21.5 -0.8 17 12.6 SSE 13 15 7 8 1008.0 1004.9 0.0
03/02:00am 25.8 23.3 -1.1 17 12.5 SSW 2 7 1 4 1008.1 1005.0 0.0
03/01:30am 25.7 22.2 -1.2 17 12.5 W 7 9 4 5 1007.8 1004.7 0.0
03/01:00am 26.1 22.7 -0.8 17 12.6 NW 7 9 4 5 1007.9 1004.8 0.0
03/12:30am 26.2 24.1 -0.8 17 12.6 CALM 0 0 0 0 1007.9 1004.8 0.0
03/12:00am 27.1 25.0 -0.9 16 13.2 CALM 0 0 0 0 1008.1 1005.0 0.0
 
Date/Time
WST
Temp
°C
App
Temp
°C
Dew
Point
°C
Rel
Hum
%
Delta-T
°C
Wind Press
QNH
hPa
Press
MSL
hPa
Rain since
9am
mm
Dir  Spd
km/h
Gust
km/h
Spd
kts
Gust
kts
02/11:30pm 27.7 25.5 -1.3 15 13.6 CALM 0 0 0 0 1008.3 1005.2 0.0
02/11:00pm 29.2 27.1 -1.0 14 14.4 CALM 0 0 0 0 1008.5 1005.4 0.0
02/10:30pm 32.2 28.8 -0.8 12 16.1 SW 7 7 4 4 1008.5 1005.4 0.0
02/10:00pm 33.5 29.7 -1.0 11 17.0 SW 9 11 5 6 1008.6 1005.5 0.0
02/09:30pm 34.7 29.7 -1.4 10 17.8 SSW 15 19 8 10 1008.4 1005.3 0.0
02/09:00pm 35.2 30.4 0.3 11 17.7 SW 15 19 8 10 1008.3 1005.2 0.0
02/08:30pm 35.1 31.3 -1.1 10 17.9 W 9 15 5 8 1008.0 1004.9 0.0
02/08:00pm 35.7 31.5 -0.6 10 18.3 WSW 11 17 6 9 1007.8 1004.7 0.0
02/07:30pm 36.1 31.8 -1.7 9 18.7 WSW 11 13 6 7 1007.5 1004.4 0.0
02/07:00pm 37.2 31.5 -0.9 9 19.2 WSW 19 24 10 13 1006.9 1003.9 0.0
02/06:30pm 37.8 32.3 -2.1 8 19.8 WSW 17 24 9 13 1006.5 1003.4 0.0
02/06:00pm 38.4 33.0 -1.6 8 20.1 WSW 17 24 9 13 1006.1 1003.0 0.0
02/05:30pm 39.0 32.3 -1.2 8 20.4 WSW 24 37 13 20 1005.7 1002.6 0.0
02/05:00pm 39.6 33.3 -0.8 8 20.7 WSW 22 57 12 31 1005.3 1002.2 0.0
02/04:30pm 38.9 33.9 -1.3 8 20.3 W 15 28 8 15 1005.3 1002.2 0.0
02/04:00pm 40.0 33.8 -0.5 8 20.9 W 22 37 12 20 1005.2 1002.1 0.0
02/03:30pm 39.2 32.9 -1.1 8 20.5 WNW 22 41 12 22 1005.4 1002.3 0.0
02/03:00pm 40.2 35.7 -0.3 8 21.0 WNW 13 24 7 13 1005.4 1002.3 0.0
02/02:30pm 39.7 34.8 -0.7 8 20.7 WSW 15 22 8 12 1005.6 1002.5 0.0
02/02:00pm 39.9 33.7 -0.5 8 20.9 W 22 35 12 19 1005.7 1002.6 0.0
02/01:30pm 38.7 34.3 0.2 9 19.9 WSW 13 28 7 15 1006.1 1003.0 0.0
02/01:00pm 39.8 34.9 -0.6 8 20.8 NW 15 35 8 19 1006.2 1003.1 0.0
02/12:30pm 37.8 32.2 1.0 10 19.2 NW 20 32 11 17 1006.7 1003.6 0.0
02/12:00pm 38.4 33.6 0.0 9 19.8 WSW 15 30 8 16 1006.9 1003.9 0.0
02/11:30am 38.0 33.0 1.1 10 19.3 W 17 28 9 15 1007.4 1004.3 0.0
02/11:00am 37.8 32.7 1.0 10 19.2 WNW 17 26 9 14 1007.8 1004.7 0.0
02/10:30am 37.3 33.0 3.1 12 18.3 WSW 15 28 8 15 1008.2 1005.1 0.0
02/10:00am 35.9 31.4 4.2 14 17.2 W 17 24 9 13 1008.5 1005.4 0.0
02/09:30am 35.6 31.6 5.0 15 16.8 W 15 20 8 11 1008.6 1005.5 0.0
02/09:00am 34.1 30.6 5.6 17 15.7 NW 13 19 7 10 1008.6 1005.5 0.0
02/08:30am 32.4 29.0 5.8 19 14.5 W 13 22 7 12 1008.8 1005.7 0.0
02/08:00am 30.8 28.4 8.5 25 12.6 WNW 11 19 6 10 1008.9 1005.9 0.0
02/07:30am 29.0 26.9 9.7 30 11.0 NW 11 17 6 9 1008.8 1005.7 0.0
02/07:00am 27.5 24.9 10.7 35 9.7 NNW 15 19 8 10 1008.9 1005.9 0.0
02/06:30am 26.5 24.0 11.0 38 8.9 NNW 15 20 8 11 1008.6 1005.5 0.0
02/06:00am 25.5 23.0 10.9 40 8.4 NNW 15 20 8 11 1008.4 1005.3 0.0
02/05:30am 24.3 22.0 10.6 42 7.8 NNW 13 17 7 9 1008.2 1005.1 0.0
02/05:00am 22.8 20.4 9.9 44 7.2 N 13 15 7 8 1007.9 1004.8 0.0
02/04:30am 22.8 20.9 9.2 42 7.5 N 9 9 5 5 1007.4 1004.3 0.0
02/04:00am 23.1 21.7 9.5 42 7.5 NNW 7 11 4 6 1007.0 1004.0 0.0
02/03:30am 23.7 21.8 8.9 39 8.1 WNW 9 11 5 6 1006.8 1003.7 0.0
02/03:00am 23.7 22.1 8.6 38 8.3 NW 7 9 4 5 1006.8 1003.7 0.0
02/02:30am 25.0 23.2 9.3 37 8.7 NW 9 11 5 6 1006.7 1003.6 0.0
02/02:00am 25.0 22.7 8.9 36 8.9 WNW 11 13 6 7 1006.8 1003.7 0.0
02/01:30am 26.5 24.4 9.8 35 9.4 NW 11 13 6 7 1006.9 1003.9 0.0
02/01:00am 27.0 25.2 9.4 33 9.9 NNW 9 13 5 7 1007.2 1004.2 0.0
02/12:30am 28.0 25.5 9.8 32 10.4 NW 13 17 7 9 1007.5 1004.4 0.0
02/12:00am 28.5 25.9 9.2 30 10.9 NNW 13 15 7 8 1007.8 1004.7 0.0
 
Date/Time
WST
Temp
°C
App
Temp
°C
Dew
Point
°C
Rel
Hum
%
Delta-T
°C
Wind Press
QNH
hPa
Press
MSL
hPa
Rain since
9am
mm
Dir  Spd
km/h
Gust
km/h
Spd
kts
Gust
kts
01/11:30pm 29.4 26.7 9.0 28 11.5 NNW 13 17 7 9 1008.3 1005.2 0.0
01/11:00pm 30.0 27.1 9.5 28 11.8 NNW 15 22 8 12 1008.8 1005.7 0.0
01/10:30pm 30.5 27.4 8.8 26 12.3 NNW 15 26 8 14 1009.3 1006.3 0.0
01/10:00pm 31.7 27.3 7.4 22 13.6 WNW 20 33 11 18 1009.1 1006.1 0.0
01/09:30pm 32.4 28.5 3.4 16 15.2 NW 13 17 7 9 1007.7 1004.6 0.0
01/09:00pm 31.7 28.2 3.7 17 14.7 NNW 11 13 6 7 1007.6 1004.5 0.0
01/08:30pm 32.7 28.8 3.6 16 15.3 WNW 13 15 7 8 1007.2 1004.2 0.0
01/08:00pm 33.6 30.3 2.4 14 16.3 WNW 9 9 5 5 1006.9 1003.9 0.0
01/07:30pm 34.3 30.3 3.0 14 16.5 W 13 17 7 9 1006.8 1003.7 0.0
01/07:00pm 35.2 32.3 1.5 12 17.5 NE 6 17 3 9 1006.6 1003.5 0.0
01/06:43pm 35.1 29.9 2.6 13 17.1 SSW 19 52 10 28 1006.2 1003.1 0.0
01/06:30pm 35.6 30.7 1.8 12 17.6 WSW 17 30 9 16 1006.4 1003.3 0.0
01/06:00pm 35.8 30.5 2.0 12 17.7 WNW 19 24 10 13 1005.9 1002.8 0.0
01/05:30pm 36.3 29.8 2.4 12 17.9 NW 26 37 14 20 1005.6 1002.5 0.0
01/05:00pm 36.2 28.7 1.1 11 18.2 NW 30 43 16 23 1005.4 1002.3 0.0
01/04:33pm 34.6 26.1 5.1 16 16.1 NW 39 57 21 31 1005.2 1002.1 0.0
01/04:30pm 35.0 25.8 5.4 16 16.3 NW 43 57 23 31 1005.3 1002.2 0.0
01/04:12pm 36.0 30.0 5.3 15 16.9 W 26 57 14 31 1005.5 1002.4 0.0
01/04:00pm 37.8 31.9 -2.1 8 19.9 W 19 26 10 14 1004.8 1001.7 0.0
01/03:30pm 39.7 33.2 -2.5 7 21.1 NW 22 35 12 19 1004.8 1001.7 0.0
01/03:00pm 39.6 34.4 -2.6 7 21.1 WNW 15 22 8 12 1005.2 1002.1 0.0
01/02:30pm 39.0 34.9 -3.0 7 20.7 N 9 24 5 13 1005.6 1002.5 0.0
01/02:00pm 38.9 32.9 -3.1 7 20.7 NNW 19 35 10 19 1006.1 1003.0 0.0
01/01:30pm 38.5 33.2 -3.4 7 20.5 WNW 15 26 8 14 1006.6 1003.5 0.0
01/01:00pm 38.4 32.2 -3.4 7 20.5 NW 20 43 11 23 1006.9 1003.9 0.0
01/12:58pm 38.9 33.3 -3.1 7 20.7 NW 17 43 9 23 1006.8 1003.7 0.0
01/12:30pm 37.7 31.4 -3.9 7 20.1 NW 20 33 11 18 1007.2 1004.2 0.0
01/12:00pm 37.9 31.2 -3.8 7 20.2 NNW 22 37 12 20 1007.7 1004.6 0.0
01/11:30am 37.2 30.3 -2.5 8 19.5 NNW 24 39 13 21 1008.1 1005.0 0.0
01/11:01am 37.3 29.7 -2.4 8 19.6 NNW 28 46 15 25 1008.5 1005.4 0.0
01/11:00am 37.0 29.7 -2.7 8 19.5 NNW 26 46 14 25 1008.4 1005.3 0.0
01/10:40am 37.8 29.4 -5.9 6 20.4 NNW 30 48 16 26 1008.7 1005.6 0.0
01/10:30am 36.8 28.3 -6.6 6 19.9 N 30 43 16 23 1008.9 1005.9 0.0
01/10:00am 36.2 26.7 -7.0 6 19.7 N 35 46 19 25 1009.3 1006.3 0.0
01/09:30am 35.9 26.4 -7.2 6 19.5 N 35 57 19 31 1009.5 1006.5 0.0
01/09:24am 35.1 25.2 -7.8 6 19.1 N 37 57 20 31 1009.5 1006.5 0.0
01/09:00am 34.0 23.8 -6.6 7 18.3 N 39 46 21 25 1009.9 1006.8 0.0
01/08:30am 33.2 23.9 -5.5 8 17.6 N 35 48 19 26 1010.2 1007.1 0.0
01/08:00am 32.6 23.6 -5.9 8 17.4 N 33 44 18 24 1010.4 1007.3 0.0
01/07:30am 30.4 21.6 -4.6 10 15.8 N 33 48 18 26 1010.5 1007.9 0.0
01/07:00am 29.1 20.6 -3.2 12 14.8 NNE 32 41 17 22 1010.5 1007.9 0.0
01/06:30am 27.4 19.0 -2.4 14 13.7 NE 32 39 17 21 1010.4 1007.8 0.0
01/06:00am 26.3 18.0 -1.5 16 12.9 NE 32 44 17 24 1010.4 1007.8 0.0
01/05:30am 25.2 18.1 -1.6 17 12.3 ENE 26 37 14 20 1010.5 1007.9 0.0
01/05:00am 24.6 17.5 -1.3 18 11.9 ENE 26 35 14 19 1010.0 1007.4 0.0
01/04:30am 24.5 17.3 -2.1 17 12.0 NE 26 35 14 19 1010.0 1007.4 0.0
01/04:00am 25.1 16.7 -2.5 16 12.4 NE 32 41 17 22 1010.0 1007.4 0.0
01/03:30am 25.5 17.0 -3.0 15 12.8 NE 32 41 17 22 1010.2 1007.6 0.0
01/03:00am 25.9 17.4 -3.6 14 13.1 ENE 32 46 17 25 1010.1 1007.5 0.0
01/02:30am 26.1 18.1 -5.5 12 13.6 ENE 28 35 15 19 1010.4 1007.8 0.0
01/02:00am 26.5 19.3 -5.2 12 13.8 E 24 35 13 19 1011.0 1008.4 0.0
01/01:30am 27.1 18.6 -7.1 10 14.4 ESE 30 39 16 21 1011.3 1008.7 0.0
01/01:00am 28.2 21.5 -7.6 9 15.1 ESE 20 30 11 16 1012.5 1009.9 0.0
01/12:30am 28.5 21.9 -7.4 9 15.2 E 20 26 11 14 1011.8 1009.3 0.0
01/12:00am 29.3 21.8 -8.3 8 15.8 ESE 24 30 13 16 1011.4 1008.9 0.0
 
Date/Time
WST
Temp
°C
App
Temp
°C
Dew
Point
°C
Rel
Hum
%
Delta-T
°C
Wind Press
QNH
hPa
Press
MSL
hPa
Rain since
9am
mm
Dir  Spd
km/h
Gust
km/h
Spd
kts
Gust
kts
30/11:30pm 30.1 24.5 -6.2 9 15.9 SE 15 22 8 12 1012.0 1009.4 0.0
30/11:00pm 30.1 25.9 1.5 16 14.3 S 13 17 7 9 1011.8 1009.3 0.0
30/10:30pm 30.3 25.9 2.5 17 14.2 S 15 20 8 11 1011.8 1009.3 0.0
30/10:00pm 31.3 27.3 0.6 14 15.3 S 11 17 6 9 1011.8 1009.3 0.0
30/09:30pm 31.5 26.4 0.8 14 15.3 S 17 26 9 14 1012.2 1009.6 0.0
30/09:00pm 32.4 25.6 0.5 13 16.0 S 26 41 14 22 1012.2 1009.6 0.0
30/08:44pm 32.9 26.9 -1.4 11 16.7 SSW 20 50 11 27 1011.3 1008.7 0.0
30/08:43pm 33.0 27.2 -1.4 11 16.7 SSW 19 39 10 21 1011.3 1008.7 0.0
30/08:30pm 32.7 27.7 -4.3 9 17.1 E 13 20 7 11 1010.6 1008.0 0.0
30/08:00pm 32.6 26.5 -4.3 9 17.1 ENE 19 24 10 13 1008.5 1005.9 0.0
30/07:30pm 32.9 27.2 -4.1 9 17.2 ENE 17 20 9 11 1008.1 1005.5 0.0
30/07:00pm 33.7 28.4 -3.5 9 17.6 ENE 15 19 8 10 1007.9 1005.3 0.0
30/06:30pm 34.7 28.9 -4.4 8 18.3 ENE 17 22 9 12 1007.5 1004.8 0.0
30/06:00pm 35.5 30.6 -3.8 8 18.8 NNE 13 28 7 15 1007.5 1004.8 0.0
30/05:30pm 35.9 31.4 -3.5 8 18.9 N 11 17 6 9 1007.5 1004.8 0.0
30/05:00pm 36.0 32.8 -3.4 8 19.0 NNE 4 13 2 7 1007.8 1005.2 0.0
30/04:30pm 35.7 29.6 -3.6 8 18.8 NNE 19 32 10 17 1007.9 1005.3 0.0

Other formats

Comma delimited format used in spreadsheet applications
http://www.bom.gov.au/fwo/IDW60801/IDW60801.94449.axf

JavaScript Object Notation format (JSON) in row-major order
http://www.bom.gov.au/fwo/IDW60801/IDW60801.94449.json

Data quality

Most of these data are generated automatically and are frequently updated. Quality checks on data are not normally performed. It is possible for incorrect values to appear. Refer to information at About Latest Weather Observations and please check the disclaimer before using these data.